createdAt,value
2023-04-15T00:01:10.069Z,7.80
2023-04-15T00:03:37.894Z,7.47
2023-04-15T00:06:06.208Z,8.70
2023-04-15T00:08:34.188Z,9.33
2023-04-15T00:11:05.750Z,8.53
2023-04-15T00:13:34.073Z,7.47
2023-04-15T00:16:03.306Z,8.63
2023-04-15T00:18:31.642Z,8.97
2023-04-15T00:20:59.282Z,8.20
2023-04-15T00:23:26.960Z,8.27
2023-04-15T00:25:54.867Z,9.30
2023-04-15T00:28:22.399Z,8.80
2023-04-15T00:30:50.010Z,8.97
2023-04-15T00:33:18.884Z,9.17
2023-04-15T00:35:47.662Z,13.00
2023-04-15T00:38:15.183Z,8.60
2023-04-15T00:40:43.494Z,7.03
2023-04-15T00:43:10.997Z,7.43
2023-04-15T00:45:38.991Z,8.90
2023-04-15T00:48:07.219Z,10.17
2023-04-15T00:50:36.280Z,8.10
2023-04-15T00:53:03.977Z,8.27
2023-04-15T00:55:32.595Z,6.70
2023-04-15T00:58:00.276Z,7.03
2023-04-15T01:00:27.924Z,6.83
2023-04-15T01:02:55.633Z,7.20
2023-04-15T01:05:23.626Z,9.50
2023-04-15T01:07:53.118Z,8.57
2023-04-15T01:10:21.324Z,8.23
2023-04-15T01:12:49.211Z,7.07
2023-04-15T01:15:17.038Z,8.07
2023-04-15T01:17:44.823Z,7.63
2023-04-15T01:20:12.571Z,7.60
2023-04-15T01:22:40.698Z,7.97
2023-04-15T01:25:13.583Z,7.77
2023-04-15T01:27:43.246Z,8.90
2023-04-15T01:30:11.682Z,10.67
2023-04-15T01:32:39.349Z,10.23
2023-04-15T01:35:07.757Z,8.87
2023-04-15T01:37:35.918Z,9.73
2023-04-15T01:40:03.466Z,9.03
2023-04-15T01:42:31.444Z,9.87
2023-04-15T01:45:00.848Z,9.97
2023-04-15T01:47:28.504Z,10.40
2023-04-15T01:49:56.172Z,10.53
2023-04-15T01:52:23.799Z,12.37
2023-04-15T01:54:52.072Z,10.90
2023-04-15T01:57:19.702Z,10.30
2023-04-15T01:59:47.239Z,9.43
2023-04-15T02:02:17.483Z,10.77
2023-04-15T02:04:45.530Z,12.80
2023-04-15T02:07:13.316Z,13.40
2023-04-15T02:09:43.477Z,12.53
2023-04-15T02:12:11.308Z,14.13
2023-04-15T02:14:38.973Z,13.20
2023-04-15T02:17:08.442Z,12.60
2023-04-15T02:19:39.238Z,12.80
2023-04-15T02:22:07.605Z,13.27
2023-04-15T02:24:35.962Z,15.30
2023-04-15T02:27:04.098Z,12.57
2023-04-15T02:29:33.284Z,13.50
2023-04-15T02:32:02.611Z,13.10
2023-04-15T02:34:31.488Z,13.80
2023-04-15T02:37:00.542Z,14.47
2023-04-15T02:39:28.140Z,16.73
2023-04-15T02:41:59.080Z,14.20
2023-04-15T02:44:27.378Z,16.47
2023-04-15T02:46:59.299Z,13.37
2023-04-15T02:49:29.841Z,15.63
2023-04-15T02:51:58.204Z,14.10
2023-04-15T02:54:28.738Z,22.07
2023-04-15T02:56:56.622Z,15.30
2023-04-15T02:59:24.542Z,16.63
2023-04-15T03:01:52.406Z,16.63
2023-04-15T03:04:20.135Z,16.00
2023-04-15T03:06:47.831Z,17.83
2023-04-15T03:09:15.708Z,17.80
2023-04-15T03:11:45.727Z,18.67
2023-04-15T03:14:13.309Z,19.63
2023-04-15T03:16:45.015Z,20.47
2023-04-15T03:19:15.649Z,17.57
2023-04-15T03:21:44.173Z,20.10
2023-04-15T03:24:11.689Z,20.40
2023-04-15T03:26:39.566Z,24.73
2023-04-15T03:29:14.085Z,22.73
2023-04-15T03:31:42.703Z,23.80
2023-04-15T03:34:10.533Z,25.60
2023-04-15T03:36:38.216Z,28.17
2023-04-15T03:39:05.820Z,28.80
2023-04-15T03:41:33.760Z,28.47
2023-04-15T03:44:01.363Z,24.20
2023-04-15T03:46:30.297Z,33.43
2023-04-15T03:48:57.962Z,24.20
2023-04-15T03:51:26.275Z,23.70
2023-04-15T03:53:53.892Z,28.00
2023-04-15T03:56:21.392Z,35.13
2023-04-15T03:58:49.024Z,28.27
2023-04-15T04:01:17.354Z,28.90
2023-04-15T04:03:46.422Z,30.27
2023-04-15T04:06:14.096Z,27.53
2023-04-15T04:08:41.703Z,27.90
2023-04-15T04:11:09.253Z,32.90
2023-04-15T04:13:36.917Z,28.73
2023-04-15T04:16:05.374Z,29.87
2023-04-15T04:18:33.102Z,29.40
2023-04-15T04:21:02.246Z,23.00
2023-04-15T04:23:30.157Z,28.10
2023-04-15T04:25:57.757Z,31.20
2023-04-15T04:28:25.326Z,28.17
2023-04-15T04:30:52.973Z,36.73
2023-04-15T04:33:20.713Z,32.93
2023-04-15T04:35:48.478Z,37.10
2023-04-15T04:38:17.485Z,33.77
2023-04-15T04:40:45.322Z,38.20
2023-04-15T04:43:13.517Z,34.70
2023-04-15T04:45:41.194Z,38.00
2023-04-15T04:48:10.559Z,41.13
2023-04-15T04:50:38.299Z,38.10
2023-04-15T04:53:05.901Z,47.67
2023-04-15T04:55:36.870Z,39.40
2023-04-15T04:58:04.665Z,43.50
2023-04-15T05:00:32.195Z,45.37
2023-04-15T05:03:00.080Z,48.63
2023-04-15T05:05:27.972Z,46.10
2023-04-15T05:07:55.570Z,48.10
2023-04-15T05:10:23.268Z,45.33
2023-04-15T05:12:52.667Z,48.53
2023-04-15T05:15:20.450Z,50.27
2023-04-15T05:17:48.117Z,50.23
2023-04-15T05:20:15.746Z,52.47
2023-04-15T05:22:43.371Z,53.47
2023-04-15T05:25:10.933Z,65.87
2023-04-15T05:27:38.555Z,52.20
2023-04-15T05:30:08.901Z,56.03
2023-04-15T05:32:36.729Z,52.53
2023-04-15T05:35:04.390Z,56.37
2023-04-15T05:37:32.044Z,52.60
2023-04-15T05:39:59.593Z,55.90
2023-04-15T05:42:27.218Z,60.27
2023-04-15T05:44:54.925Z,63.13
2023-04-15T05:47:24.017Z,53.53
2023-04-15T05:49:51.795Z,57.80
2023-04-15T05:52:19.518Z,59.23
2023-04-15T05:54:47.135Z,54.03
2023-04-15T05:57:14.696Z,59.83
2023-04-15T05:59:42.838Z,58.83
2023-04-15T06:02:11.498Z,61.20
2023-04-15T06:04:40.601Z,51.13
2023-04-15T06:07:08.231Z,52.63
2023-04-15T06:09:36.200Z,54.40
2023-04-15T06:12:03.880Z,49.40
2023-04-15T06:14:31.439Z,55.47
2023-04-15T06:16:59.025Z,65.73
2023-04-15T06:19:26.700Z,57.57
2023-04-15T06:21:55.782Z,55.83
2023-04-15T06:24:23.463Z,60.97
2023-04-15T06:26:51.191Z,61.00
2023-04-15T06:29:18.870Z,65.77
2023-04-15T06:31:48.280Z,57.60
2023-04-15T06:34:15.891Z,60.87
2023-04-15T06:36:43.615Z,63.30
2023-04-15T06:39:12.504Z,59.33
2023-04-15T06:41:40.677Z,62.17
2023-04-15T06:44:08.260Z,65.40
2023-04-15T06:46:35.848Z,67.93
2023-04-15T06:49:03.819Z,60.93
2023-04-15T06:51:31.577Z,65.77
2023-04-15T06:53:59.104Z,75.67
2023-04-15T06:56:28.113Z,61.93
2023-04-15T06:58:56.090Z,68.13
2023-04-15T07:01:23.684Z,57.50
2023-04-15T07:03:51.668Z,65.50
2023-04-15T07:06:19.818Z,74.47
2023-04-15T07:08:47.434Z,71.63
2023-04-15T07:11:15.081Z,67.07
2023-04-15T07:13:44.108Z,65.23
2023-04-15T07:16:11.712Z,75.80
2023-04-15T07:18:39.297Z,68.03
2023-04-15T07:21:07.042Z,78.80
2023-04-15T07:23:34.798Z,66.10
2023-04-15T07:26:02.528Z,69.83
2023-04-15T07:28:30.595Z,62.30
2023-04-15T07:30:59.548Z,66.67
2023-04-15T07:33:27.208Z,60.87
2023-04-15T07:35:54.792Z,65.57
2023-04-15T07:38:23.238Z,67.10
2023-04-15T07:40:50.852Z,66.10
2023-04-15T07:43:20.588Z,66.97
2023-04-15T07:45:48.299Z,68.03
2023-04-15T07:48:18.381Z,61.20
2023-04-15T07:50:46.381Z,62.43
2023-04-15T07:53:14.613Z,62.07
2023-04-15T07:55:42.389Z,61.30
2023-04-15T07:58:10.009Z,55.73
2023-04-15T08:00:38.467Z,68.67
2023-04-15T08:03:06.892Z,64.97
2023-04-15T08:05:36.124Z,63.10
2023-04-15T08:08:03.853Z,63.00
2023-04-15T08:10:31.581Z,64.70
2023-04-15T08:13:01.833Z,60.97
2023-04-15T08:15:30.800Z,68.13
2023-04-15T08:18:00.757Z,59.87
2023-04-15T08:20:29.870Z,65.17
2023-04-15T08:22:58.763Z,61.40
2023-04-15T08:25:27.225Z,58.83
2023-04-15T08:27:56.878Z,58.43
2023-04-15T08:30:24.571Z,61.73
2023-04-15T08:32:52.229Z,58.80
2023-04-15T08:35:19.982Z,61.77
2023-04-15T08:37:47.596Z,57.83
2023-04-15T08:40:17.187Z,59.30
2023-04-15T08:42:46.738Z,62.67
2023-04-15T08:45:14.549Z,56.40
2023-04-15T08:47:44.161Z,67.53
2023-04-15T08:50:12.301Z,52.33
2023-04-15T08:52:40.147Z,58.10
2023-04-15T08:55:09.752Z,58.37
2023-04-15T08:57:39.805Z,57.90
2023-04-15T09:00:09.355Z,59.50
2023-04-15T09:02:37.514Z,53.83
2023-04-15T09:05:06.972Z,60.03
2023-04-15T09:07:35.357Z,54.93
2023-04-15T09:10:04.301Z,60.77
2023-04-15T09:12:32.220Z,59.50
2023-04-15T09:15:01.567Z,62.50
2023-04-15T09:17:29.346Z,55.30
2023-04-15T09:20:09.219Z,60.00
2023-04-15T09:22:37.545Z,63.13
2023-04-15T09:25:06.402Z,58.47
2023-04-15T09:27:37.336Z,60.57
2023-04-15T09:30:10.271Z,62.27
2023-04-15T09:32:50.448Z,52.00
2023-04-15T09:35:18.258Z,49.63
2023-04-15T09:37:45.927Z,51.80
2023-04-15T09:40:14.187Z,48.90
2023-04-15T09:42:59.980Z,45.07
2023-04-15T09:45:29.776Z,52.07
2023-04-15T09:47:59.206Z,52.90
2023-04-15T09:50:29.246Z,52.93
2023-04-15T09:52:57.362Z,43.53
2023-04-15T09:55:25.038Z,44.30
2023-04-15T09:57:52.666Z,41.00
2023-04-15T10:00:20.363Z,45.57
2023-04-15T10:02:50.060Z,45.63
2023-04-15T10:05:17.918Z,40.00
2023-04-15T10:07:46.773Z,38.57
2023-04-15T10:10:14.447Z,38.37
2023-04-15T10:12:42.524Z,40.63
2023-04-15T10:15:16.429Z,38.87
2023-04-15T10:17:45.108Z,39.03
2023-04-15T10:20:15.216Z,36.10
2023-04-15T10:22:43.369Z,35.00
2023-04-15T10:25:12.137Z,29.33
2023-04-15T10:27:42.090Z,28.63
2023-04-15T10:30:10.264Z,30.20
2023-04-15T10:32:38.133Z,30.43
2023-04-15T10:35:07.448Z,29.53
2023-04-15T10:37:37.737Z,28.27
2023-04-15T10:40:27.182Z,25.90
2023-04-15T10:42:55.900Z,28.57
2023-04-15T10:45:23.969Z,25.23
2023-04-15T10:47:56.507Z,23.03
2023-04-15T10:50:27.680Z,25.73
2023-04-15T10:52:57.216Z,23.90
2023-04-15T10:55:26.615Z,23.40
2023-04-15T10:57:56.048Z,23.00
2023-04-15T11:00:26.550Z,19.87
2023-04-15T11:02:56.253Z,21.87
2023-04-15T11:05:25.020Z,18.10
2023-04-15T11:07:56.341Z,18.10
2023-04-15T11:10:57.207Z,19.00
2023-04-15T11:13:28.197Z,12.87
2023-04-15T11:16:01.299Z,16.20
2023-04-15T11:18:31.762Z,16.27
2023-04-15T11:21:01.605Z,14.47
2023-04-15T11:23:36.648Z,17.87
2023-04-15T11:26:09.159Z,15.20
2023-04-15T11:28:39.019Z,16.63
2023-04-15T11:31:11.268Z,17.50
2023-04-15T11:33:39.988Z,17.10
2023-04-15T11:36:09.029Z,16.20
2023-04-15T11:38:38.045Z,18.70
2023-04-15T11:41:05.752Z,18.63
2023-04-15T11:43:35.347Z,21.13
2023-04-15T11:46:04.676Z,17.93
2023-04-15T11:48:34.300Z,14.80
2023-04-15T11:51:03.885Z,20.97
2023-04-15T11:53:41.233Z,20.00
2023-04-15T11:56:09.820Z,17.30
2023-04-15T11:58:39.081Z,15.27
2023-04-15T12:01:07.690Z,13.20
2023-04-15T12:03:39.719Z,15.63
2023-04-15T12:06:16.816Z,14.87
2023-04-15T12:08:54.894Z,15.07
2023-04-15T12:11:29.569Z,14.43
2023-04-15T12:13:58.459Z,14.83
2023-04-15T12:16:26.689Z,13.80
2023-04-15T12:18:56.059Z,14.37
2023-04-15T12:21:25.023Z,14.80
2023-04-15T12:23:55.532Z,16.60
2023-04-15T12:26:28.503Z,13.83
2023-04-15T12:28:56.957Z,15.37
2023-04-15T12:31:26.546Z,14.47
2023-04-15T12:33:56.296Z,16.10
2023-04-15T12:36:24.110Z,17.37
2023-04-15T12:38:52.176Z,14.10
2023-04-15T12:41:21.502Z,15.00
2023-04-15T12:43:49.095Z,15.80
2023-04-15T12:46:17.343Z,17.07
2023-04-15T12:48:45.053Z,15.37
2023-04-15T12:51:12.604Z,14.90
2023-04-15T12:53:40.221Z,21.57
2023-04-15T12:56:08.202Z,18.63
2023-04-15T12:58:37.213Z,14.40
2023-04-15T13:01:05.012Z,15.43
2023-04-15T13:03:32.788Z,14.97
2023-04-15T13:06:02.284Z,15.77
2023-04-15T13:08:29.906Z,17.20
2023-04-15T13:10:57.882Z,13.00
2023-04-15T13:13:25.636Z,16.53
2023-04-15T13:15:54.665Z,14.30
2023-04-15T13:18:23.562Z,19.20
2023-04-15T13:20:52.014Z,14.87
2023-04-15T13:23:19.679Z,13.07
2023-04-15T13:25:47.421Z,15.53
2023-04-15T13:28:15.052Z,14.17
2023-04-15T13:30:44.010Z,14.70
2023-04-15T13:33:12.975Z,13.60
2023-04-15T13:35:41.051Z,11.67
2023-04-15T13:38:08.828Z,14.43
2023-04-15T13:40:36.378Z,12.10
2023-04-15T13:43:04.782Z,13.60
2023-04-15T13:45:32.816Z,15.13
2023-04-15T13:48:01.091Z,10.67
2023-04-15T13:50:30.376Z,10.80
2023-04-15T13:52:58.225Z,10.50
2023-04-15T13:55:27.055Z,14.50
2023-04-15T13:57:55.314Z,10.73
2023-04-15T14:00:23.206Z,10.40
2023-04-15T14:02:51.191Z,9.70
2023-04-15T14:05:18.985Z,9.50
2023-04-15T14:07:48.061Z,10.97
2023-04-15T14:10:15.930Z,12.07
2023-04-15T14:12:43.464Z,9.80
2023-04-15T14:15:11.713Z,16.13
2023-04-15T14:17:39.401Z,12.47
2023-04-15T14:20:09.368Z,11.10
2023-04-15T14:22:37.162Z,13.93
2023-04-15T14:25:07.381Z,11.70
2023-04-15T14:27:34.977Z,11.70
2023-04-15T14:30:02.588Z,11.30
2023-04-15T14:32:30.360Z,12.00
2023-04-15T14:34:58.095Z,15.80
2023-04-15T14:37:26.397Z,10.77
2023-04-15T14:39:54.224Z,10.67
2023-04-15T14:42:23.191Z,12.50
2023-04-15T14:44:50.912Z,9.47
2023-04-15T14:47:18.585Z,10.40
2023-04-15T14:49:46.268Z,12.57
2023-04-15T14:52:13.897Z,10.40
2023-04-15T14:54:41.438Z,10.50
2023-04-15T14:57:09.148Z,10.50
2023-04-15T14:59:38.121Z,13.17
2023-04-15T15:02:05.983Z,10.93
2023-04-15T15:04:33.938Z,9.80
2023-04-15T15:07:01.639Z,10.50
2023-04-15T15:09:29.693Z,11.13
2023-04-15T15:11:57.993Z,11.80
2023-04-15T15:14:26.228Z,13.10
2023-04-15T15:16:55.347Z,12.20
2023-04-15T15:19:24.089Z,11.20
2023-04-15T15:21:51.678Z,11.20
2023-04-15T15:24:19.333Z,10.97
2023-04-15T15:26:47.272Z,15.83
2023-04-15T15:29:14.840Z,10.90
2023-04-15T15:31:42.501Z,11.80
2023-04-15T15:34:11.494Z,12.80
2023-04-15T15:36:39.140Z,11.70
2023-04-15T15:39:06.980Z,13.87
2023-04-15T15:41:34.893Z,13.73
2023-04-15T15:44:02.455Z,11.37
2023-04-15T15:46:31.314Z,15.10
2023-04-15T15:48:59.172Z,13.10
2023-04-15T15:51:28.803Z,13.93
2023-04-15T15:53:56.809Z,13.33
2023-04-15T15:56:24.342Z,12.40
2023-04-15T15:58:53.620Z,19.17
2023-04-15T16:01:21.845Z,13.43
2023-04-15T16:03:49.893Z,12.17
2023-04-15T16:06:17.524Z,14.83
2023-04-15T16:08:46.477Z,15.50
2023-04-15T16:11:14.098Z,14.17
2023-04-15T16:13:41.796Z,14.30
2023-04-15T16:16:09.410Z,21.50
2023-04-15T16:18:37.041Z,16.07
2023-04-15T16:21:04.854Z,20.00
2023-04-15T16:23:32.567Z,17.60
2023-04-15T16:26:01.869Z,16.43
2023-04-15T16:28:29.775Z,15.33
2023-04-15T16:30:57.432Z,16.53
2023-04-15T16:33:25.104Z,16.47
2023-04-15T16:35:52.836Z,18.23
2023-04-15T16:38:20.848Z,18.93
2023-04-15T16:40:48.531Z,21.33
2023-04-15T16:43:17.470Z,17.40
2023-04-15T16:45:50.752Z,19.70
2023-04-15T16:48:18.721Z,22.80
2023-04-15T16:50:46.376Z,21.97
2023-04-15T16:53:15.718Z,18.67
2023-04-15T16:55:43.690Z,19.97
2023-04-15T16:58:11.525Z,21.53
2023-04-15T17:00:40.689Z,20.03
2023-04-15T17:03:08.543Z,21.50
2023-04-15T17:05:36.255Z,25.80
2023-04-15T17:08:03.947Z,19.20
2023-04-15T17:10:32.070Z,19.07
2023-04-15T17:13:00.277Z,18.80
2023-04-15T17:15:28.102Z,17.93
2023-04-15T17:17:57.124Z,22.03
2023-04-15T17:20:24.821Z,26.33
2023-04-15T17:22:52.563Z,25.03
2023-04-15T17:25:20.210Z,29.77
2023-04-15T17:27:47.812Z,23.93
2023-04-15T17:30:15.621Z,20.40
2023-04-15T17:32:43.320Z,20.07
2023-04-15T17:35:12.410Z,19.60
2023-04-15T17:37:40.489Z,19.33
2023-04-15T17:40:09.474Z,20.77
2023-04-15T17:42:37.225Z,19.43
2023-04-15T17:45:05.639Z,23.20
2023-04-15T17:47:33.743Z,24.03
2023-04-15T17:50:01.560Z,25.03
2023-04-15T17:52:30.671Z,21.27
2023-04-15T17:54:58.618Z,26.13
2023-04-15T17:57:26.264Z,20.70
2023-04-15T17:59:53.938Z,25.93
2023-04-15T18:02:21.721Z,18.30
2023-04-15T18:04:49.668Z,22.17
2023-04-15T18:07:17.515Z,22.80
2023-04-15T18:09:48.581Z,29.20
2023-04-15T18:12:16.357Z,24.90
2023-04-15T18:14:44.417Z,22.60
2023-04-15T18:17:13.597Z,21.40
2023-04-15T18:19:41.586Z,24.60
2023-04-15T18:22:09.175Z,24.97
2023-04-15T18:24:37.963Z,22.37
2023-04-15T18:27:07.114Z,26.27
2023-04-15T18:29:36.105Z,27.70
2023-04-15T18:32:03.886Z,24.10
2023-04-15T18:34:31.998Z,21.63
2023-04-15T18:37:00.119Z,28.77
2023-04-15T18:39:27.974Z,24.23
2023-04-15T18:41:56.539Z,26.20
2023-04-15T18:44:25.817Z,22.60
2023-04-15T18:46:53.946Z,23.40
2023-04-15T18:49:21.994Z,25.77
2023-04-15T18:51:49.869Z,30.77
2023-04-15T18:54:17.642Z,25.77
2023-04-15T18:56:45.903Z,25.53
2023-04-15T18:59:29.442Z,29.73
2023-04-15T19:02:00.429Z,25.90
2023-04-15T19:04:29.814Z,22.10
2023-04-15T19:06:58.832Z,20.90
2023-04-15T19:09:26.911Z,25.13
2023-04-15T19:11:54.673Z,25.20
2023-04-15T19:14:22.833Z,27.50
2023-04-15T19:16:50.754Z,24.37
2023-04-15T19:19:19.960Z,27.47
2023-04-15T19:21:49.915Z,21.10
2023-04-15T19:24:18.238Z,20.13
2023-04-15T19:26:49.095Z,19.30
2023-04-15T19:29:20.165Z,27.37
2023-04-15T19:31:47.917Z,24.33
2023-04-15T19:34:15.918Z,22.70
2023-04-15T19:36:45.026Z,20.43
2023-04-15T19:39:13.649Z,27.80
2023-04-15T19:41:41.387Z,21.87
2023-04-15T19:44:09.440Z,28.87
2023-04-15T19:46:37.616Z,24.90
2023-04-15T19:49:06.168Z,21.20
2023-04-15T19:51:34.141Z,28.27
2023-04-15T19:54:03.436Z,23.77
2023-04-15T19:56:32.930Z,25.10
2023-04-15T19:59:02.676Z,23.27
2023-04-15T20:01:30.864Z,21.00
2023-04-15T20:03:59.140Z,34.10
2023-04-15T20:06:28.370Z,25.33
2023-04-15T20:08:56.144Z,27.57
2023-04-15T20:12:48.353Z,26.07
2023-04-15T20:14:17.434Z,24.40
2023-04-15T20:16:45.297Z,31.63
2023-04-15T20:19:13.840Z,22.83
2023-04-15T20:21:41.598Z,24.17
2023-04-15T20:24:09.906Z,29.63
2023-04-15T20:26:39.095Z,26.90
2023-04-15T20:29:06.941Z,22.17
2023-04-15T20:31:36.113Z,29.87
2023-04-15T20:34:04.007Z,28.40
2023-04-15T20:36:32.389Z,25.83
2023-04-15T20:39:00.126Z,27.73
2023-04-15T20:41:28.129Z,28.90
2023-04-15T20:43:57.807Z,25.20
2023-04-15T20:46:27.288Z,22.23
2023-04-15T20:48:57.178Z,24.33
2023-04-15T20:51:25.109Z,26.70
2023-04-15T20:53:52.805Z,24.83
2023-04-15T20:56:20.525Z,26.10
2023-04-15T20:58:48.291Z,22.80
2023-04-15T21:01:17.520Z,23.80
2023-04-15T21:03:45.598Z,22.67
2023-04-15T21:06:13.609Z,24.07
2023-04-15T21:08:41.429Z,22.73
2023-04-15T21:11:09.189Z,24.97
2023-04-15T21:13:36.996Z,23.77
2023-04-15T21:16:05.183Z,23.77
2023-04-15T21:18:34.750Z,28.53
2023-04-15T21:21:03.270Z,28.43
2023-04-15T21:23:31.553Z,26.73
2023-04-15T21:26:00.021Z,25.77
2023-04-15T21:28:28.270Z,26.30
2023-04-15T21:30:56.776Z,25.33
2023-04-15T21:33:25.588Z,25.40
2023-04-15T21:35:55.556Z,26.40
2023-04-15T21:38:23.570Z,25.77
2023-04-15T21:40:51.407Z,25.20
2023-04-15T21:43:19.162Z,24.43
2023-04-15T21:46:21.181Z,30.37
2023-04-15T21:48:34.877Z,23.97
2023-04-15T21:51:04.345Z,28.43
2023-04-15T21:53:32.187Z,23.00
2023-04-15T21:55:59.918Z,27.00
2023-04-15T21:58:27.512Z,30.57
2023-04-15T22:00:57.498Z,28.50
2023-04-15T22:03:25.724Z,24.00
2023-04-15T22:05:53.636Z,27.60
2023-04-15T22:08:22.938Z,23.23
2023-04-15T22:10:51.092Z,30.63
2023-04-15T22:13:19.283Z,26.03
2023-04-15T22:15:47.376Z,27.47
2023-04-15T22:18:15.020Z,27.73
2023-04-15T22:20:42.715Z,28.50
2023-04-15T22:23:12.526Z,29.07
2023-04-15T22:25:41.479Z,25.27
2023-04-15T22:28:09.214Z,24.63
2023-04-15T22:30:38.911Z,26.50
2023-04-15T22:33:06.909Z,38.20
2023-04-15T22:35:36.121Z,26.10
2023-04-15T22:38:04.571Z,30.80
2023-04-15T22:40:32.272Z,34.10
2023-04-15T22:43:01.340Z,26.37
2023-04-15T22:45:28.964Z,35.10
2023-04-15T22:47:56.607Z,25.07
2023-04-15T22:50:24.430Z,23.67
2023-04-15T22:52:52.011Z,27.43
2023-04-15T22:55:19.732Z,36.20
2023-04-15T22:57:47.265Z,29.50
2023-04-15T23:00:16.308Z,25.80
2023-04-15T23:02:44.002Z,28.27
2023-04-15T23:05:12.596Z,23.13
2023-04-15T23:07:41.482Z,27.67
2023-04-15T23:10:10.081Z,30.63
2023-04-15T23:12:37.675Z,42.47
2023-04-15T23:15:05.974Z,32.93
2023-04-15T23:17:35.100Z,29.43
2023-04-15T23:20:02.975Z,39.00
2023-04-15T23:22:30.775Z,30.97
2023-04-15T23:24:58.261Z,26.03
2023-04-15T23:27:25.806Z,28.30
2023-04-15T23:29:53.316Z,27.03
2023-04-15T23:32:21.048Z,35.73
2023-04-15T23:34:49.997Z,35.80
2023-04-15T23:37:18.685Z,30.20
2023-04-15T23:39:46.448Z,26.37
2023-04-15T23:42:14.007Z,35.53
2023-04-15T23:44:41.639Z,28.30
2023-04-15T23:47:09.310Z,30.37
2023-04-15T23:49:37.446Z,36.93
2023-04-15T23:52:06.665Z,29.53
2023-04-15T23:54:34.227Z,25.17
2023-04-15T23:57:01.723Z,27.77
2023-04-15T23:59:29.309Z,27.80
